createdAt,value
2023-05-03T00:00:26.814Z,68.29
2023-05-03T00:01:46.161Z,68.26
2023-05-03T00:02:49.227Z,68.31
2023-05-03T00:03:55.034Z,68.41
2023-05-03T00:05:01.017Z,68.35
2023-05-03T00:06:14.652Z,68.31
2023-05-03T00:07:18.586Z,68.27
2023-05-03T00:08:21.953Z,68.34
2023-05-03T00:09:24.864Z,68.26
2023-05-03T00:10:27.802Z,68.12
2023-05-03T00:11:30.762Z,68.10
2023-05-03T00:12:33.637Z,68.11
2023-05-03T00:13:36.733Z,68.15
2023-05-03T00:14:39.558Z,68.31
2023-05-03T00:15:42.402Z,68.32
2023-05-03T00:16:45.345Z,68.38
2023-05-03T00:17:48.396Z,68.34
2023-05-03T00:18:51.227Z,68.47
2023-05-03T00:19:56.253Z,68.52
2023-05-03T00:20:59.781Z,68.38
2023-05-03T00:22:02.678Z,68.30
2023-05-03T00:23:05.788Z,68.37
2023-05-03T00:24:08.612Z,68.43
2023-05-03T00:25:11.493Z,68.42
2023-05-03T00:26:14.485Z,68.42
2023-05-03T00:27:18.909Z,68.35
2023-05-03T00:28:22.188Z,68.29
2023-05-03T00:29:25.117Z,68.27
2023-05-03T00:30:28.071Z,68.26
2023-05-03T00:31:31.038Z,68.37
2023-05-03T00:32:34.022Z,68.39
2023-05-03T00:33:37.951Z,68.17
2023-05-03T00:34:41.285Z,68.28
2023-05-03T00:35:44.932Z,68.34
2023-05-03T00:36:47.871Z,68.44
2023-05-03T00:37:50.834Z,68.38
2023-05-03T00:38:54.005Z,68.54
2023-05-03T00:39:56.891Z,68.48
2023-05-03T00:40:59.719Z,68.53
2023-05-03T00:42:04.164Z,68.59
2023-05-03T00:43:07.747Z,68.52
2023-05-03T00:44:10.724Z,68.49
2023-05-03T00:45:13.576Z,68.45
2023-05-03T00:46:17.610Z,68.48
2023-05-03T00:47:22.506Z,68.42
2023-05-03T00:48:26.032Z,68.43
2023-05-03T00:49:28.918Z,68.43
2023-05-03T00:50:31.828Z,68.43
2023-05-03T00:51:35.474Z,68.58
2023-05-03T00:52:40.591Z,68.41
2023-05-03T00:53:44.823Z,68.53
2023-05-03T00:54:47.747Z,68.58
2023-05-03T00:55:55.754Z,68.55
2023-05-03T00:56:59.303Z,68.52
2023-05-03T00:58:02.171Z,68.47
2023-05-03T00:59:06.426Z,68.53
2023-05-03T01:00:10.792Z,68.40
2023-05-03T01:01:13.749Z,68.40
2023-05-03T01:02:17.010Z,68.41
2023-05-03T01:03:19.932Z,68.55
2023-05-03T01:04:23.627Z,68.32
2023-05-03T01:05:33.053Z,68.47
2023-05-03T01:06:38.662Z,68.56
2023-05-03T01:08:34.271Z,68.60
2023-05-03T01:09:49.381Z,68.69
2023-05-03T01:10:59.623Z,68.76
2023-05-03T01:12:12.055Z,68.82
2023-05-03T01:13:33.600Z,68.94
2023-05-03T01:14:41.519Z,69.03
2023-05-03T01:15:52.872Z,69.02
2023-05-03T01:17:11.852Z,69.06
2023-05-03T01:18:21.689Z,69.18
2023-05-03T01:19:51.538Z,69.15
2023-05-03T01:20:56.468Z,69.19
2023-05-03T01:22:26.532Z,69.29
2023-05-03T01:23:36.507Z,69.31
2023-05-03T01:24:41.877Z,69.35
2023-05-03T01:25:44.846Z,69.38
2023-05-03T01:26:47.711Z,69.25
2023-05-03T01:27:51.145Z,69.32
2023-05-03T01:28:55.340Z,69.27
2023-05-03T01:29:58.219Z,69.29
2023-05-03T01:31:01.307Z,69.37
2023-05-03T01:32:09.813Z,69.38
2023-05-03T01:33:33.792Z,69.38
2023-05-03T01:35:01.263Z,69.44
2023-05-03T01:36:21.006Z,69.52
2023-05-03T01:37:23.950Z,69.60
2023-05-03T01:38:28.858Z,69.62
2023-05-03T01:39:39.452Z,69.73
2023-05-03T01:40:50.268Z,69.60
2023-05-03T01:41:54.268Z,69.70
2023-05-03T01:42:57.866Z,69.75
2023-05-03T01:44:01.620Z,69.75
2023-05-03T01:45:05.636Z,69.83
2023-05-03T01:46:09.022Z,69.92
2023-05-03T01:47:15.276Z,70.00
2023-05-03T01:48:19.828Z,69.84
2023-05-03T01:49:22.762Z,69.87
2023-05-03T01:50:25.748Z,70.09
2023-05-03T01:51:28.568Z,69.81
2023-05-03T01:52:31.548Z,69.88
2023-05-03T01:53:34.398Z,69.65
2023-05-03T01:54:38.009Z,69.80
2023-05-03T01:55:40.844Z,69.71
2023-05-03T01:56:44.491Z,69.59
2023-05-03T01:57:47.333Z,69.74
2023-05-03T01:58:50.215Z,69.74
2023-05-03T01:59:53.414Z,69.80
2023-05-03T02:00:57.210Z,69.75
2023-05-03T02:02:00.090Z,69.85
2023-05-03T02:03:03.033Z,69.78
2023-05-03T02:04:05.943Z,69.80
2023-05-03T02:05:10.487Z,69.64
2023-05-03T02:06:13.400Z,69.83
2023-05-03T02:07:16.300Z,69.73
2023-05-03T02:08:19.158Z,69.75
2023-05-03T02:09:22.493Z,70.02
2023-05-03T02:10:25.830Z,69.73
2023-05-03T02:11:31.682Z,69.70
2023-05-03T02:12:34.741Z,69.62
2023-05-03T02:13:38.314Z,69.74
2023-05-03T02:14:41.272Z,69.65
2023-05-03T02:15:45.195Z,69.73
2023-05-03T02:16:48.676Z,69.87
2023-05-03T02:17:51.625Z,69.88
2023-05-03T02:18:55.869Z,69.78
2023-05-03T02:19:58.688Z,69.78
2023-05-03T02:21:01.954Z,69.65
2023-05-03T02:22:04.817Z,69.51
2023-05-03T02:23:07.757Z,69.76
2023-05-03T02:24:10.678Z,69.69
2023-05-03T02:25:13.507Z,69.60
2023-05-03T02:26:16.453Z,69.86
2023-05-03T02:27:19.312Z,70.02
2023-05-03T02:28:22.619Z,70.03
2023-05-03T02:29:25.641Z,70.11
2023-05-03T02:30:29.006Z,70.16
2023-05-03T02:31:32.444Z,69.85
2023-05-03T02:32:36.121Z,69.94
2023-05-03T02:33:39.306Z,69.98
2023-05-03T02:34:42.202Z,70.38
2023-05-03T02:35:45.429Z,70.09
2023-05-03T02:36:48.337Z,69.94
2023-05-03T02:37:51.493Z,69.79
2023-05-03T02:38:54.923Z,70.08
2023-05-03T02:39:58.162Z,70.16
2023-05-03T02:41:01.132Z,70.08
2023-05-03T02:42:04.093Z,70.09
2023-05-03T02:43:07.016Z,70.03
2023-05-03T02:44:09.881Z,70.17
2023-05-03T02:45:12.735Z,70.24
2023-05-03T02:46:15.744Z,70.44
2023-05-03T02:47:18.854Z,70.33
2023-05-03T02:48:21.676Z,70.01
2023-05-03T02:49:24.703Z,70.23
2023-05-03T02:50:27.751Z,70.10
2023-05-03T02:51:31.087Z,70.21
2023-05-03T02:52:33.953Z,70.13
2023-05-03T02:53:36.905Z,70.01
2023-05-03T02:54:40.086Z,69.75
2023-05-03T02:55:44.799Z,69.97
2023-05-03T02:56:47.997Z,69.90
2023-05-03T02:57:50.887Z,69.94
2023-05-03T02:58:55.310Z,69.82
2023-05-03T02:59:58.783Z,69.71
2023-05-03T03:01:02.255Z,69.71
2023-05-03T03:02:05.371Z,69.80
2023-05-03T03:03:09.019Z,69.80
2023-05-03T03:04:11.930Z,69.53
2023-05-03T03:05:14.821Z,69.64
2023-05-03T03:06:18.569Z,69.68
2023-05-03T03:07:21.523Z,69.52
2023-05-03T03:08:25.072Z,69.65
2023-05-03T03:09:28.146Z,69.65
2023-05-03T03:10:31.571Z,69.67
2023-05-03T03:11:35.277Z,69.43
2023-05-03T03:12:38.736Z,69.48
2023-05-03T03:13:41.954Z,69.60
2023-05-03T03:14:45.834Z,69.78
2023-05-03T03:15:48.724Z,69.82
2023-05-03T03:16:52.275Z,69.64
2023-05-03T03:17:58.011Z,69.63
2023-05-03T03:19:01.096Z,69.53
2023-05-03T03:20:06.361Z,69.63
2023-05-03T03:21:09.365Z,69.66
2023-05-03T03:22:12.452Z,69.66
2023-05-03T03:23:15.448Z,69.58
2023-05-03T03:24:18.533Z,69.71
2023-05-03T03:25:21.608Z,69.87
2023-05-03T03:26:25.320Z,69.74
2023-05-03T03:27:28.654Z,69.79
2023-05-03T03:28:31.497Z,69.81
2023-05-03T03:29:35.588Z,69.65
2023-05-03T03:30:39.100Z,70.09
2023-05-03T03:31:48.515Z,70.07
2023-05-03T03:32:53.030Z,70.01
2023-05-03T03:33:59.742Z,69.89
2023-05-03T03:35:03.361Z,69.81
2023-05-03T03:36:08.009Z,69.89
2023-05-03T03:37:11.725Z,69.94
2023-05-03T03:38:16.325Z,69.93
2023-05-03T03:39:24.247Z,69.89
2023-05-03T03:40:27.261Z,69.92
2023-05-03T03:41:32.060Z,69.87
2023-05-03T03:42:35.133Z,69.83
2023-05-03T03:43:38.013Z,69.89
2023-05-03T03:44:42.267Z,69.74
2023-05-03T03:45:45.487Z,69.83
2023-05-03T03:46:48.897Z,69.94
2023-05-03T03:47:53.710Z,69.83
2023-05-03T03:48:57.112Z,69.98
2023-05-03T03:50:02.222Z,70.05
2023-05-03T03:51:06.878Z,69.89
2023-05-03T03:52:13.309Z,69.85
2023-05-03T03:53:16.225Z,69.85
2023-05-03T03:54:19.895Z,69.99
2023-05-03T03:55:23.229Z,69.94
2023-05-03T03:56:27.279Z,69.84
2023-05-03T03:57:31.712Z,70.01
2023-05-03T03:58:34.830Z,69.96
2023-05-03T03:59:37.896Z,70.12
2023-05-03T04:00:41.031Z,70.05
2023-05-03T04:01:47.449Z,70.02
2023-05-03T04:02:50.511Z,70.09
2023-05-03T04:03:54.423Z,70.13
2023-05-03T04:04:57.366Z,69.86
2023-05-03T04:06:00.379Z,70.09
2023-05-03T04:07:04.487Z,69.92
2023-05-03T04:08:07.448Z,70.01
2023-05-03T04:09:11.159Z,70.00
2023-05-03T04:10:14.629Z,69.98
2023-05-03T04:11:17.695Z,69.98
2023-05-03T04:12:25.577Z,69.93
2023-05-03T04:13:28.732Z,70.13
2023-05-03T04:14:31.728Z,70.24
2023-05-03T04:15:34.622Z,69.95
2023-05-03T04:16:38.608Z,70.01
2023-05-03T04:17:42.265Z,69.83
2023-05-03T04:18:46.525Z,69.70
2023-05-03T04:19:49.756Z,69.74
2023-05-03T04:20:52.700Z,69.65
2023-05-03T04:21:56.482Z,69.55
2023-05-03T04:23:00.765Z,69.63
2023-05-03T04:24:07.322Z,69.54
2023-05-03T04:25:17.294Z,69.76
2023-05-03T04:26:31.246Z,69.54
2023-05-03T04:27:38.663Z,69.36
2023-05-03T04:28:42.500Z,69.15
2023-05-03T04:29:46.053Z,69.26
2023-05-03T04:30:49.499Z,69.07
2023-05-03T04:31:56.979Z,69.09
2023-05-03T04:33:00.844Z,69.06
2023-05-03T04:34:04.819Z,69.14
2023-05-03T04:35:09.719Z,69.15
2023-05-03T04:36:16.228Z,69.12
2023-05-03T04:37:23.003Z,69.20
2023-05-03T04:38:26.195Z,69.00
2023-05-03T04:39:29.064Z,68.85
2023-05-03T04:40:32.128Z,69.04
2023-05-03T04:41:42.217Z,69.10
2023-05-03T04:42:45.591Z,68.99
2023-05-03T04:43:48.442Z,69.13
2023-05-03T04:44:51.525Z,68.97
2023-05-03T04:45:54.601Z,69.02
2023-05-03T04:46:59.916Z,68.92
2023-05-03T04:48:05.527Z,68.74
2023-05-03T04:49:08.793Z,68.82
2023-05-03T04:50:11.655Z,68.74
2023-05-03T04:51:16.871Z,68.58
2023-05-03T04:52:21.049Z,68.33
2023-05-03T04:53:24.164Z,68.38
2023-05-03T04:54:34.912Z,68.54
2023-05-03T04:55:37.771Z,68.81
2023-05-03T04:56:40.799Z,68.71
2023-05-03T04:57:47.939Z,68.82
2023-05-03T04:58:50.837Z,68.56
2023-05-03T04:59:56.507Z,68.38
2023-05-03T05:00:59.970Z,68.41
2023-05-03T05:02:05.567Z,68.54
2023-05-03T05:03:09.292Z,68.38
2023-05-03T05:04:12.274Z,68.09
2023-05-03T05:05:20.402Z,68.20
2023-05-03T05:06:23.987Z,68.19
2023-05-03T05:07:27.037Z,68.06
2023-05-03T05:08:30.469Z,68.01
2023-05-03T05:09:33.559Z,67.82
2023-05-03T05:10:40.896Z,67.68
2023-05-03T05:11:44.892Z,67.77
2023-05-03T05:12:47.880Z,67.79
2023-05-03T05:13:50.760Z,67.77
2023-05-03T05:14:54.118Z,67.44
2023-05-03T05:15:57.254Z,67.64
2023-05-03T05:17:00.349Z,67.16
2023-05-03T05:18:03.335Z,67.04
2023-05-03T05:19:06.542Z,67.21
2023-05-03T05:20:12.564Z,67.01
2023-05-03T05:21:17.416Z,67.05
2023-05-03T05:22:21.026Z,66.68
2023-05-03T05:23:29.222Z,66.50
2023-05-03T05:24:32.280Z,66.49
2023-05-03T05:25:35.151Z,66.18
2023-05-03T05:26:38.585Z,66.24
2023-05-03T05:27:42.089Z,66.33
2023-05-03T05:28:44.960Z,66.28
2023-05-03T05:29:47.827Z,66.23
2023-05-03T05:30:50.740Z,66.01
2023-05-03T05:31:54.159Z,66.34
2023-05-03T05:32:57.173Z,65.99
2023-05-03T05:34:00.211Z,66.29
2023-05-03T05:35:03.769Z,66.26
2023-05-03T05:36:07.521Z,66.10
2023-05-03T05:37:10.656Z,66.30
2023-05-03T05:38:14.147Z,66.16
2023-05-03T05:39:17.720Z,66.09
2023-05-03T05:40:21.513Z,66.19
2023-05-03T05:41:28.604Z,66.26
2023-05-03T05:42:31.517Z,66.38
2023-05-03T05:43:34.620Z,66.24
2023-05-03T05:44:37.675Z,66.34
2023-05-03T05:45:40.885Z,66.05
2023-05-03T05:46:43.783Z,66.11
2023-05-03T05:47:47.294Z,66.02
2023-05-03T05:48:51.490Z,65.91
2023-05-03T05:49:54.950Z,65.69
2023-05-03T05:50:58.064Z,65.70
2023-05-03T05:52:01.044Z,65.78
2023-05-03T05:53:04.525Z,65.87
2023-05-03T05:54:11.025Z,65.76
2023-05-03T05:55:15.934Z,65.77
2023-05-03T05:56:20.397Z,65.30
2023-05-03T05:57:23.365Z,65.20
2023-05-03T05:58:26.418Z,64.98
2023-05-03T05:59:31.517Z,64.76
2023-05-03T06:00:35.291Z,64.54
2023-05-03T06:01:41.846Z,64.40
2023-05-03T06:02:45.940Z,64.47
2023-05-03T06:03:52.687Z,64.50
2023-05-03T06:04:56.347Z,64.78
2023-05-03T06:05:59.427Z,64.73
2023-05-03T06:07:02.346Z,64.39
2023-05-03T06:08:05.329Z,64.42
2023-05-03T06:09:22.983Z,64.28
2023-05-03T06:10:29.211Z,63.98
2023-05-03T06:11:33.949Z,63.80
2023-05-03T06:12:37.031Z,63.96
2023-05-03T06:13:42.153Z,63.37
2023-05-03T06:15:01.028Z,62.62
2023-05-03T06:16:05.871Z,62.02
2023-05-03T06:17:08.873Z,61.97
2023-05-03T06:18:11.830Z,61.90
2023-05-03T06:19:14.904Z,62.11
2023-05-03T06:20:18.508Z,62.10
2023-05-03T06:21:22.736Z,61.82
2023-05-03T06:22:25.760Z,61.46
2023-05-03T06:23:29.273Z,61.64
2023-05-03T06:24:33.715Z,61.21
2023-05-03T06:25:36.626Z,61.28
2023-05-03T06:26:40.232Z,61.25
2023-05-03T06:27:43.666Z,61.05
2023-05-03T06:28:47.357Z,60.66
2023-05-03T06:29:50.720Z,60.07
2023-05-03T06:30:53.647Z,59.92
2023-05-03T06:31:56.674Z,59.40
2023-05-03T06:32:59.902Z,59.12
2023-05-03T06:34:03.848Z,59.33
2023-05-03T06:35:07.827Z,59.34
2023-05-03T06:36:10.962Z,58.89
2023-05-03T06:37:14.303Z,58.48
2023-05-03T06:38:18.059Z,58.22
2023-05-03T06:39:21.102Z,57.79
2023-05-03T06:40:26.014Z,57.76
2023-05-03T06:41:28.886Z,57.56
2023-05-03T06:42:31.839Z,57.50
2023-05-03T06:43:55.452Z,57.33
2023-05-03T06:44:59.739Z,57.19
2023-05-03T06:46:03.334Z,57.25
2023-05-03T06:47:06.595Z,57.05
2023-05-03T06:48:10.071Z,57.06
2023-05-03T06:49:14.016Z,56.95
2023-05-03T06:50:16.905Z,56.90
2023-05-03T06:51:19.996Z,56.79
2023-05-03T06:52:22.897Z,56.63
2023-05-03T06:53:26.113Z,56.33
2023-05-03T06:54:29.137Z,55.96
2023-05-03T06:55:33.158Z,55.60
2023-05-03T06:56:36.684Z,55.52
2023-05-03T06:57:41.586Z,55.52
2023-05-03T06:58:44.513Z,55.17
2023-05-03T06:59:47.359Z,55.03
2023-05-03T07:00:54.060Z,54.25
2023-05-03T07:01:57.029Z,54.44
2023-05-03T07:03:00.401Z,54.46
2023-05-03T07:04:03.428Z,54.52
2023-05-03T07:05:07.184Z,53.84
2023-05-03T07:06:10.342Z,53.49
2023-05-03T07:07:13.324Z,53.40
2023-05-03T07:08:16.285Z,53.21
2023-05-03T07:09:21.983Z,53.19
2023-05-03T07:10:31.384Z,53.29
2023-05-03T07:11:37.121Z,52.82
2023-05-03T07:12:40.000Z,52.83
2023-05-03T07:13:42.836Z,52.70
2023-05-03T07:14:46.137Z,52.29
2023-05-03T07:15:49.241Z,52.66
2023-05-03T07:16:52.167Z,52.64
2023-05-03T07:17:55.015Z,51.76
2023-05-03T07:18:57.853Z,51.47
2023-05-03T07:20:00.828Z,51.10
2023-05-03T07:21:07.255Z,50.85
2023-05-03T07:22:12.077Z,50.69
2023-05-03T07:23:15.580Z,50.12
2023-05-03T07:24:19.119Z,50.03
2023-05-03T07:25:22.139Z,49.74
2023-05-03T07:26:26.615Z,50.01
2023-05-03T07:27:29.519Z,50.22
2023-05-03T07:28:32.489Z,49.52
2023-05-03T07:29:35.852Z,49.30
2023-05-03T07:30:38.736Z,49.21
2023-05-03T07:31:41.598Z,49.34
2023-05-03T07:32:44.617Z,49.50
2023-05-03T07:33:47.722Z,49.41
2023-05-03T07:34:51.057Z,49.82
2023-05-03T07:35:53.899Z,50.05
2023-05-03T07:36:56.885Z,50.06
2023-05-03T07:37:59.816Z,50.19
2023-05-03T07:39:02.655Z,50.10
2023-05-03T07:40:07.102Z,49.73
2023-05-03T07:41:10.590Z,49.77
2023-05-03T07:42:13.661Z,50.05
2023-05-03T07:43:18.626Z,50.23
2023-05-03T07:44:22.700Z,49.77
2023-05-03T07:45:25.824Z,49.48
2023-05-03T07:46:31.281Z,48.92
2023-05-03T07:47:37.849Z,48.87
2023-05-03T07:48:40.807Z,49.00
2023-05-03T07:49:43.899Z,48.56
2023-05-03T07:50:47.141Z,48.35
2023-05-03T07:51:50.117Z,48.31
2023-05-03T07:52:53.572Z,48.19
2023-05-03T07:53:56.640Z,48.33
2023-05-03T07:55:00.324Z,48.41
2023-05-03T07:56:03.434Z,48.53
2023-05-03T07:57:07.347Z,48.73
2023-05-03T07:58:10.255Z,49.09
2023-05-03T07:59:13.198Z,48.86
2023-05-03T08:00:17.917Z,48.67
2023-05-03T08:01:24.213Z,48.61
2023-05-03T08:02:27.415Z,48.58
2023-05-03T08:03:30.993Z,48.53
2023-05-03T08:04:34.103Z,48.58
2023-05-03T08:05:37.797Z,48.85
2023-05-03T08:06:40.798Z,48.12
2023-05-03T08:07:44.486Z,47.98
2023-05-03T08:08:47.357Z,48.05
2023-05-03T08:09:53.487Z,47.89
2023-05-03T08:10:56.327Z,48.09
2023-05-03T08:11:59.604Z,47.87
2023-05-03T08:13:02.526Z,47.72
2023-05-03T08:14:05.625Z,47.93
2023-05-03T08:15:08.957Z,48.05
2023-05-03T08:16:13.594Z,47.66
2023-05-03T08:17:16.535Z,47.49
2023-05-03T08:18:20.974Z,47.73
2023-05-03T08:19:25.581Z,47.92
2023-05-03T08:20:28.530Z,48.10
2023-05-03T08:21:31.381Z,48.21
2023-05-03T08:22:36.945Z,48.05
2023-05-03T08:23:39.781Z,47.77
2023-05-03T08:24:43.427Z,47.74
2023-05-03T08:25:46.257Z,47.82
2023-05-03T08:26:50.276Z,47.67
2023-05-03T08:27:53.170Z,47.22
2023-05-03T08:28:56.286Z,46.95
2023-05-03T08:30:01.324Z,46.56
2023-05-03T08:31:05.151Z,46.70
2023-05-03T08:32:08.454Z,47.04
2023-05-03T08:33:11.512Z,47.29
2023-05-03T08:34:14.324Z,47.17
2023-05-03T08:35:17.342Z,47.17
2023-05-03T08:36:20.434Z,46.50
2023-05-03T08:37:24.028Z,46.72
2023-05-03T08:38:27.637Z,47.32
2023-05-03T08:39:31.716Z,46.72
2023-05-03T08:40:37.517Z,46.41
2023-05-03T08:41:40.467Z,46.49
2023-05-03T08:42:44.554Z,45.86
2023-05-03T08:43:53.540Z,45.75
2023-05-03T08:44:56.522Z,45.82
2023-05-03T08:45:59.693Z,45.94
2023-05-03T08:47:04.932Z,45.82
2023-05-03T08:48:07.871Z,45.86
2023-05-03T08:49:13.737Z,45.86
2023-05-03T08:50:16.740Z,45.80
2023-05-03T08:51:24.265Z,45.87
2023-05-03T08:52:27.196Z,46.21
2023-05-03T08:53:30.099Z,46.34
2023-05-03T08:54:33.003Z,46.32
2023-05-03T08:55:36.063Z,45.95
2023-05-03T08:56:44.134Z,45.58
2023-05-03T08:57:47.299Z,45.29
2023-05-03T08:58:50.133Z,45.27
2023-05-03T08:59:57.230Z,45.57
2023-05-03T09:01:08.028Z,45.59
2023-05-03T09:02:12.346Z,44.79
2023-05-03T09:03:15.698Z,44.38
2023-05-03T09:04:18.740Z,44.16
2023-05-03T09:05:21.652Z,44.27
2023-05-03T09:06:28.574Z,44.17
2023-05-03T09:07:31.553Z,44.57
2023-05-03T09:08:43.876Z,44.07
2023-05-03T09:09:47.463Z,43.81
2023-05-03T09:10:50.436Z,44.09
2023-05-03T09:11:53.304Z,44.11
2023-05-03T09:13:03.679Z,44.09
2023-05-03T09:14:13.486Z,44.30
2023-05-03T09:15:22.439Z,44.28
2023-05-03T09:16:30.281Z,44.05
2023-05-03T09:17:33.647Z,44.15
2023-05-03T09:18:37.664Z,44.11
2023-05-03T09:19:52.697Z,44.40
2023-05-03T09:20:59.264Z,43.81
2023-05-03T09:22:07.740Z,43.89
2023-05-03T09:23:10.697Z,43.69
2023-05-03T09:24:19.456Z,42.71
2023-05-03T09:25:22.385Z,42.50
2023-05-03T09:26:28.989Z,42.40
2023-05-03T09:27:32.239Z,42.51
2023-05-03T09:28:43.016Z,42.44
2023-05-03T09:29:46.202Z,43.08
2023-05-03T09:30:50.561Z,43.22
2023-05-03T09:32:01.844Z,43.06
2023-05-03T09:33:05.103Z,43.27
2023-05-03T09:34:23.265Z,43.17
2023-05-03T09:35:26.143Z,43.25
2023-05-03T09:36:44.627Z,42.74
2023-05-03T09:37:47.470Z,42.72
2023-05-03T09:38:52.507Z,42.32
2023-05-03T09:40:05.779Z,42.24
2023-05-03T09:41:08.697Z,42.23
2023-05-03T09:42:13.161Z,42.46
2023-05-03T09:44:19.591Z,41.78
2023-05-03T09:45:25.459Z,41.56
2023-05-03T09:46:30.319Z,40.82
2023-05-03T09:47:51.955Z,40.68
2023-05-03T09:49:21.025Z,40.94
2023-05-03T09:50:24.656Z,41.28
2023-05-03T09:51:28.267Z,41.19
2023-05-03T09:52:31.381Z,41.19
2023-05-03T09:53:36.085Z,40.98
2023-05-03T09:54:39.508Z,40.91
2023-05-03T09:55:42.498Z,41.14
2023-05-03T09:56:47.307Z,41.41
2023-05-03T09:57:55.158Z,41.51
2023-05-03T09:58:59.013Z,41.26
2023-05-03T10:00:01.983Z,41.56
2023-05-03T10:01:16.382Z,41.08
2023-05-03T10:02:19.877Z,40.62
2023-05-03T10:03:38.179Z,40.86
2023-05-03T10:04:51.330Z,40.66
2023-05-03T10:05:54.864Z,40.41
2023-05-03T10:07:06.779Z,40.59
2023-05-03T10:08:12.698Z,40.52
2023-05-03T10:09:21.610Z,39.87
2023-05-03T10:10:25.000Z,40.27
2023-05-03T10:11:28.922Z,40.12
2023-05-03T10:12:34.803Z,39.62
2023-05-03T10:13:38.151Z,39.62
2023-05-03T10:14:42.805Z,40.07
2023-05-03T10:15:46.649Z,39.86
2023-05-03T10:16:51.986Z,39.77
2023-05-03T10:17:58.103Z,39.61
2023-05-03T10:19:14.648Z,39.32
2023-05-03T10:20:43.640Z,39.42
2023-05-03T10:21:57.237Z,38.98
2023-05-03T10:23:10.201Z,38.98
2023-05-03T10:24:17.460Z,38.85
2023-05-03T10:25:20.370Z,39.35
2023-05-03T10:26:25.008Z,39.49
2023-05-03T10:27:46.269Z,39.17
2023-05-03T10:28:49.465Z,39.54
2023-05-03T10:29:53.804Z,39.41
2023-05-03T10:30:56.845Z,39.25
2023-05-03T10:32:00.047Z,38.72
2023-05-03T10:33:28.860Z,38.23
2023-05-03T10:34:35.712Z,38.78
2023-05-03T10:35:42.969Z,38.83
2023-05-03T10:36:52.667Z,38.26
2023-05-03T10:37:59.000Z,38.27
2023-05-03T10:39:03.619Z,38.44
2023-05-03T10:40:14.802Z,38.37
2023-05-03T10:41:25.034Z,37.79
2023-05-03T10:42:27.889Z,37.89
2023-05-03T10:43:33.677Z,37.58
2023-05-03T10:44:55.311Z,37.38
2023-05-03T10:46:03.219Z,37.34
2023-05-03T10:47:22.737Z,37.14
2023-05-03T10:48:26.678Z,37.41
2023-05-03T10:49:29.581Z,37.93
2023-05-03T10:50:32.502Z,37.99
2023-05-03T10:51:37.686Z,37.92
2023-05-03T10:52:40.927Z,37.70
2023-05-03T10:53:45.053Z,37.46
2023-05-03T10:54:47.996Z,37.30
2023-05-03T10:56:11.063Z,37.67
2023-05-03T10:57:14.032Z,38.02
2023-05-03T10:58:17.302Z,37.44
2023-05-03T10:59:21.145Z,37.11
2023-05-03T11:00:34.069Z,37.13
2023-05-03T11:01:37.477Z,37.19
2023-05-03T11:03:08.586Z,36.98
2023-05-03T11:04:19.832Z,36.91
2023-05-03T11:05:24.870Z,36.64
2023-05-03T11:06:31.584Z,36.68
2023-05-03T11:07:34.911Z,36.62
2023-05-03T11:08:38.067Z,36.78
2023-05-03T11:09:41.260Z,36.36
2023-05-03T11:10:45.523Z,36.17
2023-05-03T11:11:48.388Z,36.05
2023-05-03T11:12:51.262Z,35.77
2023-05-03T11:13:54.592Z,35.87
2023-05-03T11:14:57.518Z,35.43
2023-05-03T11:16:00.892Z,35.86
2023-05-03T11:17:04.040Z,36.10
2023-05-03T11:18:08.705Z,36.54
2023-05-03T11:19:12.068Z,36.06
2023-05-03T11:20:15.009Z,36.08
2023-05-03T11:21:19.033Z,36.24
2023-05-03T11:22:22.178Z,36.12
2023-05-03T11:23:28.285Z,35.82
2023-05-03T11:24:31.164Z,36.12
2023-05-03T11:25:34.733Z,36.49
2023-05-03T11:26:40.809Z,36.18
2023-05-03T11:27:45.131Z,36.05
2023-05-03T11:28:49.529Z,35.17
2023-05-03T11:29:53.206Z,35.38
2023-05-03T11:30:57.488Z,35.23
2023-05-03T11:32:00.838Z,34.52
2023-05-03T11:33:03.885Z,33.82
2023-05-03T11:34:06.938Z,34.40
2023-05-03T11:35:11.002Z,34.63
2023-05-03T11:36:14.986Z,34.93
2023-05-03T11:37:18.080Z,34.80
2023-05-03T11:38:21.258Z,34.77
2023-05-03T11:39:24.051Z,35.04
2023-05-03T11:40:26.943Z,35.26
2023-05-03T11:41:29.831Z,35.16
2023-05-03T11:42:32.706Z,35.00
2023-05-03T11:43:41.266Z,34.49
2023-05-03T11:44:44.340Z,34.66
2023-05-03T11:45:50.785Z,34.41
2023-05-03T11:46:55.148Z,34.12
2023-05-03T11:47:59.319Z,34.16
2023-05-03T11:49:03.184Z,34.20
2023-05-03T11:50:06.586Z,33.94
2023-05-03T11:51:12.594Z,33.67
2023-05-03T11:52:21.133Z,34.16
2023-05-03T11:53:25.803Z,34.10
2023-05-03T11:54:29.868Z,33.74
2023-05-03T11:55:32.704Z,33.68
2023-05-03T11:56:35.657Z,33.50
2023-05-03T11:57:38.980Z,33.48
2023-05-03T11:58:57.114Z,33.04
2023-05-03T12:00:18.950Z,33.40
2023-05-03T12:01:23.281Z,33.27
2023-05-03T12:02:27.451Z,33.24
2023-05-03T12:03:36.137Z,33.03
2023-05-03T12:04:43.173Z,32.85
2023-05-03T12:05:48.171Z,32.73
2023-05-03T12:06:54.855Z,32.70
2023-05-03T12:07:59.739Z,32.65
2023-05-03T12:09:05.626Z,32.37
2023-05-03T12:10:23.890Z,32.13
2023-05-03T12:11:32.188Z,31.94
2023-05-03T12:12:38.354Z,32.04
2023-05-03T12:13:44.760Z,32.08
2023-05-03T12:15:04.506Z,32.21
2023-05-03T12:16:13.659Z,31.89
2023-05-03T12:17:37.363Z,31.94
2023-05-03T12:19:03.411Z,31.78
2023-05-03T12:21:46.967Z,31.65
2023-05-03T12:23:16.695Z,31.93
2023-05-03T12:24:20.753Z,32.03
2023-05-03T12:25:26.407Z,31.54
2023-05-03T12:26:29.946Z,31.87
2023-05-03T12:27:33.118Z,32.20
2023-05-03T12:28:36.316Z,31.87
2023-05-03T12:29:41.638Z,31.67
2023-05-03T12:30:46.426Z,31.50
2023-05-03T12:31:50.154Z,31.44
2023-05-03T12:32:53.571Z,31.26
2023-05-03T12:34:20.032Z,31.04
2023-05-03T12:35:26.942Z,30.91
2023-05-03T12:36:37.121Z,31.10
2023-05-03T12:37:43.476Z,31.38
2023-05-03T12:38:48.853Z,31.51
2023-05-03T12:40:09.835Z,31.88
2023-05-03T12:41:33.147Z,31.94
2023-05-03T12:42:43.791Z,31.69
2023-05-03T12:43:47.221Z,31.04
2023-05-03T12:44:53.358Z,31.37
2023-05-03T12:47:09.695Z,30.52
2023-05-03T12:48:13.415Z,30.15
2023-05-03T12:49:16.608Z,30.07
2023-05-03T12:50:24.427Z,30.22
2023-05-03T12:51:32.816Z,29.70
2023-05-03T12:52:38.629Z,29.41
2023-05-03T12:53:44.742Z,29.29
2023-05-03T12:54:52.400Z,29.33
2023-05-03T12:55:58.646Z,28.87
2023-05-03T12:57:08.335Z,28.85
2023-05-03T12:59:40.367Z,29.15
2023-05-03T13:00:46.613Z,29.39
2023-05-03T13:03:10.008Z,29.56
2023-05-03T13:03:32.455Z,29.20
2023-05-03T13:05:43.226Z,29.06
2023-05-03T13:06:47.250Z,28.81
2023-05-03T13:07:56.073Z,28.99
2023-05-03T13:09:03.013Z,28.92
2023-05-03T13:11:13.106Z,28.46
2023-05-03T13:12:18.235Z,28.77
2023-05-03T13:13:21.202Z,28.84
2023-05-03T13:14:24.757Z,28.62
2023-05-03T13:15:27.810Z,28.41
2023-05-03T13:16:30.926Z,28.51
2023-05-03T13:17:34.120Z,28.76
2023-05-03T13:18:37.276Z,28.56
2023-05-03T13:19:42.259Z,28.66
2023-05-03T13:20:45.647Z,28.83
2023-05-03T13:21:49.632Z,28.42
2023-05-03T13:22:52.458Z,28.36
2023-05-03T13:23:55.420Z,28.21
2023-05-03T13:24:58.259Z,28.70
2023-05-03T13:26:01.349Z,28.94
2023-05-03T13:27:06.168Z,29.00
2023-05-03T13:28:09.253Z,29.15
2023-05-03T13:29:12.099Z,29.31
2023-05-03T13:30:15.024Z,29.22
2023-05-03T13:31:18.910Z,29.09
2023-05-03T13:32:21.859Z,29.06
2023-05-03T13:33:24.929Z,29.08
2023-05-03T13:34:29.624Z,28.98
2023-05-03T13:35:32.486Z,28.93
2023-05-03T13:36:35.806Z,28.99
2023-05-03T13:37:38.908Z,28.97
2023-05-03T13:38:44.771Z,28.68
2023-05-03T13:39:47.684Z,28.69
2023-05-03T13:40:50.486Z,28.57
2023-05-03T13:41:53.392Z,28.64
2023-05-03T13:42:56.199Z,28.71
2023-05-03T13:43:59.065Z,28.69
2023-05-03T13:45:02.458Z,28.81
2023-05-03T13:46:05.562Z,28.98
2023-05-03T13:47:08.482Z,29.16
2023-05-03T13:48:18.532Z,29.13
2023-05-03T13:49:22.437Z,29.19
2023-05-03T13:50:25.567Z,29.31
2023-05-03T13:51:28.678Z,29.40
2023-05-03T13:52:31.485Z,29.42
2023-05-03T13:53:34.363Z,29.76
2023-05-03T13:54:37.369Z,30.04
2023-05-03T13:55:40.319Z,30.05
2023-05-03T13:56:43.539Z,30.13
2023-05-03T13:57:46.408Z,30.29
2023-05-03T13:58:49.457Z,30.39
2023-05-03T13:59:52.386Z,30.34
2023-05-03T14:00:55.259Z,30.47
2023-05-03T14:01:59.359Z,30.53
2023-05-03T14:03:02.579Z,30.37
2023-05-03T14:04:05.886Z,30.63
2023-05-03T14:05:10.836Z,30.88
2023-05-03T14:06:13.685Z,30.97
2023-05-03T14:07:16.532Z,30.92